createdAt,value
2023-04-04T00:02:00.780Z,4.93
2023-04-04T00:04:29.346Z,5.67
2023-04-04T00:06:57.832Z,6.37
2023-04-04T00:09:27.441Z,5.20
2023-04-04T00:11:55.659Z,3.60
2023-04-04T00:14:23.958Z,2.80
2023-04-04T00:16:52.197Z,5.13
2023-04-04T00:19:20.408Z,5.87
2023-04-04T00:21:50.359Z,5.10
2023-04-04T00:24:18.602Z,3.30
2023-04-04T00:26:48.463Z,4.10
2023-04-04T00:29:17.376Z,6.00
2023-04-04T00:31:45.694Z,3.90
2023-04-04T00:34:14.060Z,4.97
2023-04-04T00:36:43.029Z,4.00
2023-04-04T00:39:11.567Z,5.30
2023-04-04T00:41:39.763Z,7.17
2023-04-04T00:44:09.409Z,8.33
2023-04-04T00:46:37.610Z,5.00
2023-04-04T00:49:06.285Z,9.03
2023-04-04T00:51:34.543Z,5.47
2023-04-04T00:54:02.894Z,8.07
2023-04-04T00:56:31.386Z,3.93
2023-04-04T00:58:59.789Z,4.00
2023-04-04T01:01:31.515Z,6.07
2023-04-04T01:03:59.766Z,3.77
2023-04-04T01:06:30.487Z,5.47
2023-04-04T01:08:58.803Z,11.10
2023-04-04T01:11:27.774Z,5.83
2023-04-04T01:13:56.300Z,3.60
2023-04-04T01:16:24.607Z,7.20
2023-04-04T01:18:55.640Z,3.70
2023-04-04T01:21:24.435Z,4.67
2023-04-04T01:23:56.543Z,4.27
2023-04-04T01:26:27.177Z,4.40
2023-04-04T01:28:55.514Z,5.13
2023-04-04T01:31:24.939Z,5.13
2023-04-04T01:33:56.839Z,5.33
2023-04-04T01:36:27.789Z,3.67
2023-04-04T01:39:00.574Z,2.73
2023-04-04T01:41:33.856Z,4.20
2023-04-04T01:44:02.139Z,5.40
2023-04-04T01:46:31.445Z,4.93
2023-04-04T01:49:00.332Z,7.43
2023-04-04T01:51:29.100Z,4.77
2023-04-04T01:53:57.294Z,4.03
2023-04-04T01:56:25.520Z,4.10
2023-04-04T01:58:55.127Z,10.30
2023-04-04T02:01:23.422Z,4.73
2023-04-04T02:03:51.717Z,3.93
2023-04-04T02:06:19.998Z,3.77
2023-04-04T02:08:50.576Z,5.77
2023-04-04T02:11:22.545Z,4.37
2023-04-04T02:13:50.720Z,7.17
2023-04-04T02:16:20.381Z,8.33
2023-04-04T02:18:48.835Z,5.00
2023-04-04T02:21:17.073Z,5.17
2023-04-04T02:23:45.230Z,4.97
2023-04-04T02:26:13.379Z,5.70
2023-04-04T02:28:41.618Z,3.40
2023-04-04T02:31:09.892Z,5.50
2023-04-04T02:33:39.498Z,4.97
2023-04-04T02:36:07.978Z,3.70
2023-04-04T02:38:36.375Z,4.67
2023-04-04T02:41:04.639Z,5.37
2023-04-04T02:43:32.952Z,7.10
2023-04-04T02:46:07.801Z,4.60
2023-04-04T02:48:44.903Z,4.97
2023-04-04T02:51:13.059Z,4.23
2023-04-04T02:53:41.382Z,6.47
2023-04-04T02:56:09.756Z,4.00
2023-04-04T02:58:37.997Z,3.70
2023-04-04T03:01:06.546Z,4.57
2023-04-04T03:03:35.132Z,4.13
2023-04-04T03:06:04.958Z,6.47
2023-04-04T03:08:33.125Z,8.33
2023-04-04T03:11:01.431Z,4.50
2023-04-04T03:13:29.823Z,4.07
2023-04-04T03:16:04.318Z,3.87
2023-04-04T03:18:33.511Z,3.40
2023-04-04T03:21:01.768Z,3.20
2023-04-04T03:23:31.373Z,3.60
2023-04-04T03:25:59.693Z,7.00
2023-04-04T03:28:27.861Z,2.80
2023-04-04T03:30:56.618Z,5.73
2023-04-04T03:33:24.869Z,6.07
2023-04-04T03:35:53.162Z,3.90
2023-04-04T03:38:21.502Z,3.97
2023-04-04T03:40:51.420Z,7.23
2023-04-04T03:43:19.647Z,4.83
2023-04-04T03:45:49.238Z,6.43
2023-04-04T03:48:17.773Z,7.03
2023-04-04T03:50:45.993Z,7.70
2023-04-04T03:53:14.708Z,9.93
2023-04-04T03:55:43.012Z,8.00
2023-04-04T03:58:12.559Z,4.40
2023-04-04T04:00:41.061Z,4.07
2023-04-04T04:03:09.632Z,7.90
2023-04-04T04:05:37.896Z,4.43
2023-04-04T04:08:06.650Z,5.57
2023-04-04T04:10:35.189Z,6.73
2023-04-04T04:13:03.348Z,5.80
2023-04-04T04:15:32.939Z,3.60
2023-04-04T04:18:01.270Z,2.00
2023-04-04T04:20:29.491Z,3.77
2023-04-04T04:22:57.666Z,4.93
2023-04-04T04:25:25.978Z,6.90
2023-04-04T04:27:57.349Z,9.20
2023-04-04T04:30:25.785Z,5.83
2023-04-04T04:32:56.202Z,6.97
2023-04-04T04:35:24.436Z,4.17
2023-04-04T04:37:53.043Z,10.63
2023-04-04T04:40:21.465Z,9.67
2023-04-04T04:42:51.254Z,4.37
2023-04-04T04:45:20.142Z,3.87
2023-04-04T04:47:48.381Z,3.40
2023-04-04T04:50:18.151Z,3.23
2023-04-04T04:52:46.540Z,4.57
2023-04-04T04:55:14.757Z,5.00
2023-04-04T04:57:43.236Z,3.97
2023-04-04T05:00:12.420Z,5.37
2023-04-04T05:02:40.769Z,5.43
2023-04-04T05:05:09.565Z,11.23
2023-04-04T05:07:39.148Z,6.73
2023-04-04T05:10:07.827Z,8.00
2023-04-04T05:12:37.071Z,4.97
2023-04-04T05:15:05.540Z,5.20
2023-04-04T05:17:33.792Z,4.97
2023-04-04T05:20:02.232Z,8.07
2023-04-04T05:22:30.536Z,6.10
2023-04-04T05:25:00.380Z,6.07
2023-04-04T05:27:28.550Z,8.43
2023-04-04T05:29:57.577Z,11.30
2023-04-04T05:32:26.014Z,5.30
2023-04-04T05:34:54.226Z,4.30
2023-04-04T05:37:22.382Z,5.30
2023-04-04T05:39:50.588Z,7.17
2023-04-04T05:42:20.185Z,9.20
2023-04-04T05:44:48.490Z,5.90
2023-04-04T05:47:16.690Z,6.53
2023-04-04T05:49:44.894Z,7.77
2023-04-04T05:52:13.139Z,7.97
2023-04-04T05:54:42.323Z,5.87
2023-04-04T05:57:10.536Z,6.93
2023-04-04T05:59:40.345Z,11.50
2023-04-04T06:02:08.740Z,7.53
2023-04-04T06:04:37.005Z,9.13
2023-04-04T06:07:05.147Z,4.87
2023-04-04T06:09:33.431Z,5.57
2023-04-04T06:12:01.582Z,12.60
2023-04-04T06:14:29.748Z,5.67
2023-04-04T06:16:59.773Z,6.23
2023-04-04T06:19:27.937Z,8.40
2023-04-04T06:21:56.389Z,5.77
2023-04-04T06:24:24.589Z,9.37
2023-04-04T06:26:52.807Z,7.33
2023-04-04T06:29:21.012Z,11.30
2023-04-04T06:31:49.290Z,11.37
2023-04-04T06:34:18.992Z,5.20
2023-04-04T06:36:47.168Z,7.23
2023-04-04T06:39:15.591Z,5.43
2023-04-04T06:41:43.762Z,5.13
2023-04-04T06:44:12.103Z,10.07
2023-04-04T06:46:40.410Z,9.63
2023-04-04T06:49:08.600Z,14.33
2023-04-04T06:51:38.144Z,4.90
2023-04-04T06:54:06.474Z,5.50
2023-04-04T06:56:34.749Z,4.80
2023-04-04T06:59:03.394Z,4.20
2023-04-04T07:01:31.740Z,5.07
2023-04-04T07:04:00.001Z,5.47
2023-04-04T07:06:29.733Z,6.73
2023-04-04T07:08:59.330Z,7.80
2023-04-04T07:11:27.583Z,6.63
2023-04-04T07:13:55.805Z,8.67
2023-04-04T07:16:24.142Z,10.23
2023-04-04T07:18:52.582Z,5.20
2023-04-04T07:21:20.884Z,7.17
2023-04-04T07:23:50.755Z,8.20
2023-04-04T07:26:20.300Z,3.87
2023-04-04T07:28:48.514Z,4.93
2023-04-04T07:31:16.798Z,5.37
2023-04-04T07:33:45.015Z,4.47
2023-04-04T07:36:13.329Z,2.83
2023-04-04T07:38:41.520Z,10.53
2023-04-04T07:41:11.721Z,7.73
2023-04-04T07:43:41.327Z,2.33
2023-04-04T07:46:09.600Z,5.23
2023-04-04T07:48:37.862Z,4.77
2023-04-04T07:51:06.211Z,5.37
2023-04-04T07:53:34.368Z,5.90
2023-04-04T07:56:06.368Z,10.40
2023-04-04T07:58:34.914Z,6.70
2023-04-04T08:01:04.993Z,5.23
2023-04-04T08:03:33.270Z,6.67
2023-04-04T08:06:01.578Z,4.40
2023-04-04T08:08:30.370Z,4.90
2023-04-04T08:10:58.607Z,5.47
2023-04-04T08:13:27.059Z,6.03
2023-04-04T08:15:55.541Z,6.47
2023-04-04T08:18:25.198Z,7.70
2023-04-04T08:20:53.412Z,6.60
2023-04-04T08:23:21.591Z,7.83
2023-04-04T08:25:49.769Z,3.43
2023-04-04T08:28:18.007Z,6.10
2023-04-04T08:30:46.381Z,4.37
2023-04-04T08:33:14.681Z,6.20
2023-04-04T08:35:44.372Z,5.50
2023-04-04T08:38:12.663Z,6.90
2023-04-04T08:40:41.189Z,7.30
2023-04-04T08:43:09.992Z,6.50
2023-04-04T08:45:39.121Z,5.87
2023-04-04T08:48:08.590Z,4.13
2023-04-04T08:50:39.266Z,6.30
2023-04-04T08:53:09.298Z,4.60
2023-04-04T08:55:37.699Z,3.30
2023-04-04T08:58:06.109Z,4.53
2023-04-04T09:00:34.366Z,5.83
2023-04-04T09:03:08.125Z,6.03
2023-04-04T09:05:37.452Z,7.83
2023-04-04T09:08:06.882Z,7.37
2023-04-04T09:10:37.951Z,6.30
2023-04-04T09:13:15.586Z,4.63
2023-04-04T09:15:47.724Z,5.90
2023-04-04T09:18:15.956Z,7.23
2023-04-04T09:20:45.155Z,4.80
2023-04-04T09:23:13.825Z,4.70
2023-04-04T09:26:02.620Z,6.47
2023-04-04T09:28:33.202Z,8.00
2023-04-04T09:31:02.346Z,3.73
2023-04-04T09:33:30.593Z,7.20
2023-04-04T09:35:59.999Z,6.17
2023-04-04T09:38:28.712Z,3.43
2023-04-04T09:40:58.801Z,6.50
2023-04-04T09:43:30.847Z,5.90
2023-04-04T09:46:00.245Z,5.40
2023-04-04T09:48:29.202Z,6.57
2023-04-04T09:50:59.458Z,6.13
2023-04-04T09:53:27.654Z,5.20
2023-04-04T09:55:56.968Z,4.30
2023-04-04T09:58:27.842Z,7.83
2023-04-04T10:00:57.173Z,4.97
2023-04-04T10:03:26.210Z,4.20
2023-04-04T10:05:58.845Z,7.03
2023-04-04T10:08:28.969Z,7.97
2023-04-04T10:11:09.852Z,4.97
2023-04-04T10:13:44.205Z,4.53
2023-04-04T10:16:12.695Z,5.47
2023-04-04T10:18:41.233Z,3.33
2023-04-04T10:23:42.341Z,5.10
2023-04-04T10:26:10.897Z,6.90
2023-04-04T10:28:40.660Z,2.70
2023-04-04T10:31:11.324Z,5.20
2023-04-04T10:33:42.652Z,5.03
2023-04-04T10:36:13.410Z,5.43
2023-04-04T10:38:44.819Z,6.27
2023-04-04T10:41:13.907Z,6.50
2023-04-04T10:43:47.114Z,7.50
2023-04-04T10:46:17.290Z,8.00
2023-04-04T10:48:45.943Z,6.43
2023-04-04T10:51:14.934Z,8.27
2023-04-04T10:53:43.273Z,6.37
2023-04-04T10:56:12.160Z,8.77
2023-04-04T10:58:44.547Z,8.00
2023-04-04T11:01:14.191Z,6.97
2023-04-04T11:04:06.760Z,8.70
2023-04-04T11:06:50.610Z,6.60
2023-04-04T11:09:44.577Z,4.30
2023-04-04T11:12:20.088Z,9.47
2023-04-04T11:15:10.811Z,5.87
2023-04-04T11:17:45.810Z,6.17
2023-04-04T11:20:17.012Z,5.87
2023-04-04T11:22:45.660Z,5.80
2023-04-04T11:25:34.880Z,7.40
2023-04-04T11:28:06.679Z,8.17
2023-04-04T11:30:44.069Z,10.07
2023-04-04T11:33:16.447Z,5.20
2023-04-04T11:35:48.755Z,4.47
2023-04-04T11:38:17.609Z,5.23
2023-04-04T11:40:56.257Z,9.40
2023-04-04T11:43:24.936Z,9.53
2023-04-04T11:45:55.452Z,8.33
2023-04-04T11:48:24.941Z,7.07
2023-04-04T11:50:55.232Z,4.90
2023-04-04T11:53:23.394Z,9.57
2023-04-04T11:55:51.800Z,6.47
2023-04-04T11:58:20.371Z,11.70
2023-04-04T12:00:49.027Z,5.83
2023-04-04T12:03:19.213Z,7.13
2023-04-04T12:05:48.487Z,10.03
2023-04-04T12:08:17.957Z,8.40
2023-04-04T12:10:46.765Z,7.00
2023-04-04T12:13:14.984Z,5.97
2023-04-04T12:15:44.953Z,4.73
2023-04-04T12:18:22.356Z,8.40
2023-04-04T12:20:52.795Z,11.20
2023-04-04T12:23:21.676Z,7.13
2023-04-04T12:25:54.557Z,8.50
2023-04-04T12:28:22.981Z,8.10
2023-04-04T12:30:51.340Z,5.23
2023-04-04T12:33:19.711Z,8.10
2023-04-04T12:35:54.782Z,6.07
2023-04-04T12:38:23.427Z,7.77
2023-04-04T12:40:53.030Z,5.90
2023-04-04T12:43:21.741Z,7.13
2023-04-04T12:45:51.883Z,7.17
2023-04-04T12:48:21.416Z,7.60
2023-04-04T12:50:55.013Z,4.93
2023-04-04T12:55:56.272Z,8.70
2023-04-04T12:58:26.047Z,9.43
2023-04-04T13:00:55.201Z,5.33
2023-04-04T13:03:24.370Z,8.90
2023-04-04T13:05:54.089Z,3.23
2023-04-04T13:08:23.452Z,4.87
2023-04-04T13:10:58.239Z,5.70
2023-04-04T13:13:33.110Z,4.87
2023-04-04T13:16:01.448Z,5.83
2023-04-04T13:18:34.064Z,6.90
2023-04-04T13:21:03.614Z,7.67
2023-04-04T13:23:31.910Z,6.80
2023-04-04T13:26:00.481Z,8.17
2023-04-04T13:28:28.861Z,8.40
2023-04-04T13:30:57.302Z,10.13
2023-04-04T13:33:25.884Z,7.03
2023-04-04T13:35:54.191Z,6.73
2023-04-04T13:38:25.899Z,9.00
2023-04-04T13:40:55.369Z,7.07
2023-04-04T13:43:23.784Z,7.50
2023-04-04T13:45:53.279Z,7.67
2023-04-04T13:48:21.573Z,4.53
2023-04-04T13:50:51.422Z,4.60
2023-04-04T13:53:19.741Z,10.23
2023-04-04T13:58:20.780Z,5.23
2023-04-04T14:00:49.633Z,10.10
2023-04-04T14:03:18.065Z,8.23
2023-04-04T14:05:46.405Z,5.47
2023-04-04T14:08:15.030Z,5.50
2023-04-04T14:10:43.285Z,4.77
2023-04-04T14:13:12.842Z,5.47
2023-04-04T14:15:41.573Z,4.93
2023-04-04T14:18:10.252Z,7.83
2023-04-04T14:20:38.572Z,8.50
2023-04-04T14:23:06.748Z,6.03
2023-04-04T14:25:35.646Z,7.47
2023-04-04T14:28:03.804Z,4.80
2023-04-04T14:30:33.337Z,4.00
2023-04-04T14:33:01.564Z,6.87
2023-04-04T14:35:29.831Z,4.90
2023-04-04T14:37:58.006Z,9.90
2023-04-04T14:40:26.513Z,7.63
2023-04-04T14:42:54.701Z,6.90
2023-04-04T14:45:23.195Z,8.83
2023-04-04T14:47:52.889Z,7.73
2023-04-04T14:50:21.225Z,8.03
2023-04-04T14:52:52.703Z,5.53
2023-04-04T14:55:22.012Z,4.73
2023-04-04T14:58:01.976Z,8.00
2023-04-04T15:00:31.259Z,5.63
2023-04-04T15:03:00.950Z,5.00
2023-04-04T15:05:29.289Z,6.93
2023-04-04T15:07:57.566Z,8.57
2023-04-04T15:10:26.080Z,5.67
2023-04-04T15:12:54.310Z,6.90
2023-04-04T15:15:23.734Z,4.30
2023-04-04T15:17:52.279Z,16.53
2023-04-04T15:20:21.865Z,6.70
2023-04-04T15:22:50.199Z,7.70
2023-04-04T15:25:18.398Z,5.20
2023-04-04T15:27:46.574Z,8.23
2023-04-04T15:30:15.550Z,5.43
2023-04-04T15:32:43.859Z,6.27
2023-04-04T15:35:17.152Z,4.00
2023-04-04T15:37:46.747Z,4.07
2023-04-04T15:40:15.837Z,9.97
2023-04-04T15:42:44.295Z,6.63
2023-04-04T15:45:13.010Z,5.30
2023-04-04T15:47:41.324Z,5.80
2023-04-04T15:50:11.610Z,4.83
2023-04-04T15:52:39.993Z,5.23
2023-04-04T15:55:12.125Z,3.60
2023-04-04T15:57:40.472Z,5.97
2023-04-04T16:00:09.317Z,4.90
2023-04-04T16:02:37.579Z,3.10
2023-04-04T16:05:06.112Z,6.63
2023-04-04T16:07:34.394Z,6.77
2023-04-04T16:10:02.608Z,6.30
2023-04-04T16:12:32.185Z,8.23
2023-04-04T16:15:00.425Z,7.43
2023-04-04T16:17:28.629Z,5.40
2023-04-04T16:19:56.865Z,7.07
2023-04-04T16:22:25.009Z,5.40
2023-04-04T16:24:53.789Z,2.30
2023-04-04T16:27:22.001Z,6.97
2023-04-04T16:29:52.132Z,7.60
2023-04-04T16:32:20.373Z,2.30
2023-04-04T16:34:48.550Z,5.73
2023-04-04T16:37:17.150Z,4.63
2023-04-04T16:39:46.572Z,7.30
2023-04-04T16:42:19.130Z,3.83
2023-04-04T16:44:47.869Z,4.90
2023-04-04T16:47:17.434Z,11.53
2023-04-04T16:49:47.162Z,5.70
2023-04-04T16:52:15.931Z,4.77
2023-04-04T16:54:44.105Z,5.10
2023-04-04T16:57:12.492Z,3.40
2023-04-04T16:59:40.778Z,6.70
2023-04-04T17:02:09.409Z,3.07
2023-04-04T17:04:41.571Z,4.27
2023-04-04T17:07:10.271Z,6.07
2023-04-04T17:09:38.750Z,5.03
2023-04-04T17:12:07.423Z,6.90
2023-04-04T17:14:35.800Z,7.70
2023-04-04T17:17:05.422Z,4.97
2023-04-04T17:19:35.100Z,5.33
2023-04-04T17:22:05.048Z,5.33
2023-04-04T17:24:33.279Z,5.53
2023-04-04T17:27:03.806Z,4.13
2023-04-04T17:29:32.351Z,4.33
2023-04-04T17:32:00.672Z,8.70
2023-04-04T17:34:28.989Z,7.27
2023-04-04T17:36:57.658Z,4.57
2023-04-04T17:39:27.311Z,4.63
2023-04-04T17:41:56.119Z,5.00
2023-04-04T17:44:24.339Z,6.63
2023-04-04T17:46:52.611Z,4.77
2023-04-04T17:49:20.862Z,6.90
2023-04-04T17:51:49.511Z,4.73
2023-04-04T17:54:17.788Z,6.53
2023-04-04T17:56:47.688Z,8.37
2023-04-04T17:59:17.401Z,4.20
2023-04-04T18:01:45.990Z,5.10
2023-04-04T18:04:14.422Z,3.73
2023-04-04T18:06:42.672Z,4.70
2023-04-04T18:09:11.125Z,5.70
2023-04-04T18:11:40.280Z,7.20
2023-04-04T18:14:09.867Z,6.70
2023-04-04T18:16:39.605Z,11.27
2023-04-04T18:19:09.749Z,4.90
2023-04-04T18:21:38.567Z,6.53
2023-04-04T18:24:07.840Z,6.53
2023-04-04T18:26:36.029Z,8.77
2023-04-04T18:29:04.239Z,4.20
2023-04-04T18:31:34.348Z,4.90
2023-04-04T18:34:02.599Z,5.80
2023-04-04T18:36:30.927Z,5.63
2023-04-04T18:39:00.991Z,10.17
2023-04-04T18:41:30.414Z,8.87
2023-04-04T18:43:58.608Z,10.10
2023-04-04T18:46:27.110Z,7.93
2023-04-04T18:48:56.702Z,7.33
2023-04-04T18:51:24.929Z,7.20
2023-04-04T18:53:53.164Z,7.40
2023-04-04T18:56:22.267Z,10.97
2023-04-04T18:58:50.609Z,15.47
2023-04-04T19:01:18.959Z,7.27
2023-04-04T19:03:48.194Z,9.00
2023-04-04T19:06:17.955Z,8.73
2023-04-04T19:08:46.339Z,7.50
2023-04-04T19:11:15.798Z,6.07
2023-04-04T19:13:44.147Z,6.30
2023-04-04T19:16:12.445Z,12.77
2023-04-04T19:18:41.063Z,13.10
2023-04-04T19:21:11.456Z,16.97
2023-04-04T19:23:41.100Z,9.50
2023-04-04T19:26:09.425Z,15.60
2023-04-04T19:28:37.686Z,15.10
2023-04-04T19:31:10.749Z,14.50
2023-04-04T19:33:39.669Z,13.33
2023-04-04T19:36:09.431Z,5.97
2023-04-04T19:38:40.123Z,13.30
2023-04-04T19:41:13.121Z,7.70
2023-04-04T19:43:43.572Z,10.87
2023-04-04T19:46:12.724Z,9.67
2023-04-04T19:48:45.985Z,9.33
2023-04-04T19:51:33.282Z,6.80
2023-04-04T19:54:01.646Z,6.10
2023-04-04T19:56:31.214Z,10.73
2023-04-04T19:59:00.347Z,10.90
2023-04-04T20:01:29.605Z,9.73
2023-04-04T20:03:58.114Z,10.80
2023-04-04T20:06:27.458Z,12.43
2023-04-04T20:08:56.987Z,12.80
2023-04-04T20:11:26.676Z,10.63
2023-04-04T20:13:57.440Z,9.23
2023-04-04T20:16:26.141Z,11.83
2023-04-04T20:18:54.753Z,9.83
2023-04-04T20:21:24.130Z,8.70
2023-04-04T20:23:53.522Z,12.40
2023-04-04T20:26:40.564Z,8.43
2023-04-04T20:29:11.017Z,14.10
2023-04-04T20:31:42.828Z,9.67
2023-04-04T20:34:28.374Z,9.63
2023-04-04T20:36:56.622Z,7.10
2023-04-04T20:39:48.968Z,11.67
2023-04-04T20:42:35.062Z,10.37
2023-04-04T20:45:14.706Z,7.97
2023-04-04T20:47:44.446Z,10.17
2023-04-04T20:50:42.857Z,9.80
2023-04-04T20:53:15.357Z,14.23
2023-04-04T20:55:44.690Z,19.53
2023-04-04T20:58:21.676Z,16.40
2023-04-04T21:00:52.630Z,15.77
2023-04-04T21:03:31.362Z,13.10
2023-04-04T21:06:02.774Z,14.33
2023-04-04T21:08:54.702Z,18.70
2023-04-04T21:11:27.260Z,18.23
2023-04-04T21:13:55.821Z,19.40
2023-04-04T21:16:29.914Z,16.43
2023-04-04T21:18:59.087Z,17.57
2023-04-04T21:21:27.467Z,20.57
2023-04-04T21:23:56.730Z,16.37
2023-04-04T21:26:29.387Z,16.40
2023-04-04T21:28:58.418Z,14.17
2023-04-04T21:31:28.330Z,11.73
2023-04-04T21:33:58.141Z,12.70
2023-04-04T21:36:29.407Z,11.90
2023-04-04T21:38:58.369Z,11.00
2023-04-04T21:41:27.808Z,11.47
2023-04-04T21:43:57.024Z,10.87
2023-04-04T21:46:27.980Z,16.93
2023-04-04T21:48:57.689Z,12.80
2023-04-04T21:51:26.120Z,12.13
2023-04-04T21:53:54.700Z,15.63
2023-04-04T21:56:27.097Z,10.40
2023-04-04T21:58:55.505Z,15.17
2023-04-04T22:01:23.880Z,16.97
2023-04-04T22:03:52.166Z,14.83
2023-04-04T22:06:25.247Z,14.67
2023-04-04T22:08:53.478Z,11.07
2023-04-04T22:11:21.919Z,13.03
2023-04-04T22:13:50.498Z,11.70
2023-04-04T22:16:19.616Z,12.80
2023-04-04T22:18:50.945Z,10.60
2023-04-04T22:21:25.976Z,12.43
2023-04-04T22:24:00.616Z,18.00
2023-04-04T22:26:33.296Z,15.37
2023-04-04T22:29:02.854Z,16.53
2023-04-04T22:31:34.377Z,13.77
2023-04-04T22:34:03.861Z,17.90
2023-04-04T22:36:34.383Z,24.33
2023-04-04T22:39:04.031Z,12.77
2023-04-04T22:41:32.258Z,13.50
2023-04-04T22:44:00.451Z,14.30
2023-04-04T22:46:29.971Z,11.50
2023-04-04T22:49:06.387Z,13.10
2023-04-04T22:51:42.935Z,11.90
2023-04-04T22:54:14.459Z,17.63
2023-04-04T22:56:43.143Z,14.37
2023-04-04T22:59:11.680Z,14.00
2023-04-04T23:01:40.245Z,19.10
2023-04-04T23:04:08.686Z,12.93
2023-04-04T23:06:38.593Z,13.40
2023-04-04T23:09:07.917Z,13.00
2023-04-04T23:11:38.191Z,16.00
2023-04-04T23:14:08.845Z,11.07
2023-04-04T23:16:37.799Z,10.57
2023-04-04T23:19:06.123Z,13.33
2023-04-04T23:21:34.443Z,8.73
2023-04-04T23:24:02.758Z,9.80
2023-04-04T23:26:32.438Z,9.20
2023-04-04T23:29:02.923Z,12.13
2023-04-04T23:31:31.363Z,10.13
2023-04-04T23:34:00.001Z,9.60
2023-04-04T23:36:28.471Z,11.07
2023-04-04T23:38:57.096Z,10.73
2023-04-04T23:41:25.333Z,11.37
2023-04-04T23:43:54.294Z,8.40
2023-04-04T23:46:24.109Z,11.10
2023-04-04T23:48:52.431Z,11.27
2023-04-04T23:51:21.425Z,8.50
2023-04-04T23:53:49.660Z,10.40
2023-04-04T23:56:17.928Z,12.03
2023-04-04T23:58:46.263Z,7.53
